createdAt,value
2018-05-31T00:00:39.916Z,15.11
2018-05-31T00:01:39.895Z,15.01
2018-05-31T00:02:39.857Z,14.99
2018-05-31T00:03:39.818Z,15.19
2018-05-31T00:04:39.791Z,15.32
2018-05-31T00:05:39.801Z,15.35
2018-05-31T00:06:39.714Z,15.25
2018-05-31T00:07:39.712Z,15.27
2018-05-31T00:08:39.645Z,15.27
2018-05-31T00:09:39.647Z,15.16
2018-05-31T00:10:39.592Z,15.10
2018-05-31T00:11:39.532Z,15.31
2018-05-31T00:12:39.510Z,15.23
2018-05-31T00:13:39.528Z,15.09
2018-05-31T00:14:39.463Z,14.96
2018-05-31T00:15:39.419Z,14.83
2018-05-31T00:16:39.394Z,14.96
2018-05-31T00:17:39.349Z,14.99
2018-05-31T00:18:39.347Z,15.06
2018-05-31T00:19:39.288Z,15.27
2018-05-31T00:20:39.229Z,15.25
2018-05-31T00:21:39.211Z,15.29
2018-05-31T00:22:39.173Z,15.28
2018-05-31T00:23:39.140Z,15.13
2018-05-31T00:24:39.122Z,15.03
2018-05-31T00:25:39.064Z,15.16
2018-05-31T00:26:39.045Z,15.14
2018-05-31T00:27:38.995Z,15.03
2018-05-31T00:28:38.976Z,14.94
2018-05-31T00:29:38.960Z,14.99
2018-05-31T00:30:38.924Z,15.02
2018-05-31T00:31:38.863Z,15.01
2018-05-31T00:32:38.826Z,15.02
2018-05-31T00:33:38.787Z,14.99
2018-05-31T00:34:38.778Z,14.98
2018-05-31T00:35:38.743Z,15.13
2018-05-31T00:36:38.704Z,15.02
2018-05-31T00:37:38.670Z,14.95
2018-05-31T00:38:38.684Z,14.92
2018-05-31T00:39:38.605Z,14.73
2018-05-31T00:40:38.597Z,14.62
2018-05-31T00:41:38.535Z,14.73
2018-05-31T00:42:38.501Z,14.80
2018-05-31T00:43:38.489Z,14.81
2018-05-31T00:44:38.442Z,14.92
2018-05-31T00:45:39.055Z,15.06
2018-05-31T00:46:38.357Z,15.09
2018-05-31T00:47:38.326Z,15.21
2018-05-31T00:48:38.315Z,14.99
2018-05-31T00:49:38.280Z,14.91
2018-05-31T00:50:38.240Z,14.84
2018-05-31T00:51:38.199Z,14.95
2018-05-31T00:52:38.176Z,14.86
2018-05-31T00:53:38.132Z,14.75
2018-05-31T00:54:38.098Z,14.91
2018-05-31T00:55:38.086Z,14.91
2018-05-31T00:56:38.059Z,14.96
2018-05-31T00:57:38.000Z,14.99
2018-05-31T00:58:37.980Z,15.11
2018-05-31T00:59:37.928Z,15.13
2018-05-31T01:00:37.890Z,15.01
2018-05-31T01:01:37.890Z,14.81
2018-05-31T01:02:37.829Z,14.60
2018-05-31T01:03:37.790Z,14.68
2018-05-31T01:04:37.803Z,14.70
2018-05-31T01:05:37.728Z,14.91
2018-05-31T01:06:37.701Z,14.95
2018-05-31T01:07:37.673Z,14.88
2018-05-31T01:08:37.644Z,14.75
2018-05-31T01:09:37.621Z,14.73
2018-05-31T01:10:37.580Z,14.52
2018-05-31T01:11:37.528Z,14.42
2018-05-31T01:12:37.551Z,14.37
2018-05-31T01:13:37.515Z,14.37
2018-05-31T01:14:37.430Z,14.55
2018-05-31T01:15:37.410Z,14.46
2018-05-31T01:16:37.380Z,14.52
2018-05-31T01:17:37.377Z,14.51
2018-05-31T01:18:37.330Z,14.35
2018-05-31T01:19:37.272Z,14.54
2018-05-31T01:20:37.228Z,14.65
2018-05-31T01:21:37.224Z,14.75
2018-05-31T01:22:37.175Z,14.75
2018-05-31T01:23:37.139Z,14.60
2018-05-31T01:24:37.090Z,14.65
2018-05-31T01:25:37.052Z,14.64
2018-05-31T01:26:37.026Z,14.69
2018-05-31T01:27:37.063Z,14.55
2018-05-31T01:28:36.950Z,14.42
2018-05-31T01:29:36.935Z,14.40
2018-05-31T01:30:36.883Z,14.51
2018-05-31T01:31:36.885Z,14.51
2018-05-31T01:32:36.868Z,14.42
2018-05-31T01:33:36.811Z,14.40
2018-05-31T01:34:36.770Z,14.35
2018-05-31T01:35:36.736Z,14.37
2018-05-31T01:36:36.701Z,14.29
2018-05-31T01:37:36.654Z,14.46
2018-05-31T01:38:36.629Z,14.50
2018-05-31T01:39:36.592Z,14.55
2018-05-31T01:40:36.573Z,14.47
2018-05-31T01:41:36.526Z,14.36
2018-05-31T01:42:36.537Z,14.27
2018-05-31T01:43:36.463Z,14.29
2018-05-31T01:44:36.414Z,14.17
2018-05-31T01:45:36.415Z,14.33
2018-05-31T01:46:36.343Z,14.35
2018-05-31T01:47:36.313Z,14.37
2018-05-31T01:48:36.275Z,14.32
2018-05-31T01:49:36.237Z,14.25
2018-05-31T01:50:36.243Z,14.07
2018-05-31T01:51:36.177Z,14.06
2018-05-31T01:52:36.133Z,14.22
2018-05-31T01:53:36.207Z,14.36
2018-05-31T01:54:36.095Z,14.39
2018-05-31T01:55:36.072Z,14.46
2018-05-31T01:56:36.008Z,14.45
2018-05-31T01:57:36.022Z,14.55
2018-05-31T01:58:35.947Z,14.55
2018-05-31T01:59:35.910Z,14.45
2018-05-31T02:00:35.891Z,14.46
2018-05-31T02:01:35.839Z,14.50
2018-05-31T02:02:35.833Z,14.72
2018-05-31T02:03:35.774Z,14.70
2018-05-31T02:04:35.738Z,14.68
2018-05-31T02:05:35.707Z,14.69
2018-05-31T02:06:35.669Z,14.72
2018-05-31T02:07:35.641Z,14.92
2018-05-31T02:08:35.605Z,14.75
2018-05-31T02:09:35.619Z,14.62
2018-05-31T02:10:35.532Z,14.52
2018-05-31T02:11:35.498Z,14.40
2018-05-31T02:12:35.537Z,14.28
2018-05-31T02:13:35.438Z,14.32
2018-05-31T02:14:35.404Z,14.33
2018-05-31T02:15:35.393Z,14.36
2018-05-31T02:16:35.335Z,14.33
2018-05-31T02:17:35.292Z,14.24
2018-05-31T02:18:35.265Z,14.28
2018-05-31T02:19:35.268Z,14.28
2018-05-31T02:20:35.200Z,14.27
2018-05-31T02:21:35.221Z,14.28
2018-05-31T02:22:35.115Z,14.28
2018-05-31T02:23:35.079Z,14.36
2018-05-31T02:24:35.066Z,14.32
2018-05-31T02:25:35.058Z,14.27
2018-05-31T02:26:34.992Z,14.24
2018-05-31T02:27:35.001Z,14.29
2018-05-31T02:28:34.943Z,14.32
2018-05-31T02:29:34.894Z,14.43
2018-05-31T02:30:34.864Z,14.27
2018-05-31T02:31:34.815Z,14.25
2018-05-31T02:32:34.789Z,14.15
2018-05-31T02:33:34.781Z,14.29
2018-05-31T02:34:34.721Z,14.42
2018-05-31T02:35:35.584Z,14.50
2018-05-31T02:36:34.641Z,14.37
2018-05-31T02:37:34.618Z,14.29
2018-05-31T02:38:34.582Z,14.33
2018-05-31T02:39:34.563Z,14.40
2018-05-31T02:40:34.540Z,14.55
2018-05-31T02:41:34.496Z,14.45
2018-05-31T02:42:34.462Z,14.43
2018-05-31T02:43:34.424Z,14.29
2018-05-31T02:44:34.398Z,14.24
2018-05-31T02:45:34.358Z,14.29
2018-05-31T02:46:34.321Z,14.24
2018-05-31T02:47:34.282Z,14.28
2018-05-31T02:48:34.291Z,14.18
2018-05-31T02:49:34.211Z,14.24
2018-05-31T02:50:34.164Z,14.18
2018-05-31T02:51:34.154Z,14.32
2018-05-31T02:52:34.143Z,14.28
2018-05-31T02:53:34.067Z,14.25
2018-05-31T02:54:34.043Z,14.07
2018-05-31T02:55:34.008Z,14.03
2018-05-31T02:56:33.963Z,14.00
2018-05-31T02:57:33.938Z,13.85
2018-05-31T02:58:33.973Z,14.04
2018-05-31T02:59:33.863Z,14.25
2018-05-31T03:00:33.834Z,14.28
2018-05-31T03:01:33.799Z,14.24
2018-05-31T03:02:33.784Z,14.06
2018-05-31T03:03:33.758Z,13.88
2018-05-31T03:04:33.706Z,14.04
2018-05-31T03:05:33.652Z,14.04
2018-05-31T03:06:33.645Z,14.14
2018-05-31T03:07:33.643Z,14.07
2018-05-31T03:08:33.543Z,13.88
2018-05-31T03:09:33.551Z,13.91
2018-05-31T03:10:33.489Z,13.81
2018-05-31T03:11:33.487Z,13.82
2018-05-31T03:12:33.449Z,13.78
2018-05-31T03:13:33.392Z,13.85
2018-05-31T03:14:33.348Z,13.99
2018-05-31T03:15:33.321Z,14.04
2018-05-31T03:16:33.278Z,14.09
2018-05-31T03:17:33.260Z,14.17
2018-05-31T03:18:33.232Z,14.18
2018-05-31T03:19:33.180Z,14.27
2018-05-31T03:20:33.204Z,14.24
2018-05-31T03:21:33.120Z,14.24
2018-05-31T03:22:33.114Z,14.09
2018-05-31T03:23:33.079Z,14.07
2018-05-31T03:24:33.012Z,14.02
2018-05-31T03:25:32.986Z,14.04
2018-05-31T03:26:32.980Z,14.02
2018-05-31T03:27:32.914Z,14.02
2018-05-31T03:28:32.879Z,14.09
2018-05-31T03:29:32.853Z,14.24
2018-05-31T03:30:32.832Z,14.33
2018-05-31T03:31:32.791Z,14.42
2018-05-31T03:32:32.740Z,14.29
2018-05-31T03:33:32.749Z,14.28
2018-05-31T03:34:32.672Z,14.21
2018-05-31T03:35:32.646Z,14.15
2018-05-31T03:36:32.607Z,14.20
2018-05-31T03:37:32.561Z,14.25
2018-05-31T03:38:32.544Z,14.27
2018-05-31T03:39:32.528Z,14.27
2018-05-31T03:40:32.477Z,14.25
2018-05-31T03:41:32.440Z,14.27
2018-05-31T03:42:32.415Z,14.32
2018-05-31T03:43:32.370Z,14.33
2018-05-31T03:44:32.344Z,14.40
2018-05-31T03:45:32.329Z,14.33
2018-05-31T03:46:32.270Z,14.29
2018-05-31T03:47:32.279Z,14.25
2018-05-31T03:48:32.347Z,14.25
2018-05-31T03:49:32.209Z,14.20
2018-05-31T03:50:32.253Z,14.15
2018-05-31T03:51:32.122Z,14.20
2018-05-31T03:52:32.111Z,14.17
2018-05-31T03:53:32.059Z,14.17
2018-05-31T03:54:32.011Z,14.37
2018-05-31T03:55:32.013Z,14.46
2018-05-31T03:56:31.927Z,14.60
2018-05-31T03:57:31.886Z,14.62
2018-05-31T03:58:31.860Z,14.40
2018-05-31T03:59:31.855Z,14.42
2018-05-31T04:00:31.863Z,14.42
2018-05-31T04:01:31.786Z,14.40
2018-05-31T04:02:31.771Z,14.27
2018-05-31T04:03:31.711Z,14.42
2018-05-31T04:04:31.735Z,14.36
2018-05-31T04:05:31.701Z,14.45
2018-05-31T04:06:31.592Z,14.54
2018-05-31T04:07:31.542Z,14.61
2018-05-31T04:08:31.541Z,14.70
2018-05-31T04:09:31.550Z,14.98
2018-05-31T04:10:31.467Z,15.01
2018-05-31T04:11:31.426Z,15.06
2018-05-31T04:12:31.412Z,15.09
2018-05-31T04:13:31.377Z,15.09
2018-05-31T04:14:31.316Z,14.99
2018-05-31T04:15:31.347Z,14.80
2018-05-31T04:16:31.260Z,14.95
2018-05-31T04:17:31.221Z,14.92
2018-05-31T04:18:31.190Z,14.73
2018-05-31T04:19:31.165Z,14.72
2018-05-31T04:20:31.107Z,14.75
2018-05-31T04:21:31.080Z,14.78
2018-05-31T04:22:31.050Z,14.80
2018-05-31T04:23:31.027Z,14.73
2018-05-31T04:24:30.974Z,14.80
2018-05-31T04:25:30.978Z,14.72
2018-05-31T04:26:30.931Z,14.75
2018-05-31T04:27:30.900Z,14.73
2018-05-31T04:28:30.867Z,14.72
2018-05-31T04:29:30.833Z,14.92
2018-05-31T04:30:30.795Z,15.09
2018-05-31T04:31:30.740Z,15.29
2018-05-31T04:32:30.739Z,15.78
2018-05-31T04:33:30.686Z,16.35
2018-05-31T04:34:30.627Z,16.82
2018-05-31T04:35:30.602Z,16.91
2018-05-31T04:36:30.577Z,17.04
2018-05-31T04:37:30.567Z,17.34
2018-05-31T04:38:30.489Z,17.55
2018-05-31T04:39:30.498Z,17.68
2018-05-31T04:40:30.455Z,17.86
2018-05-31T04:41:30.412Z,18.12
2018-05-31T04:42:30.416Z,18.25
2018-05-31T04:43:30.363Z,18.62
2018-05-31T04:44:30.309Z,18.76
2018-05-31T04:45:31.127Z,18.91
2018-05-31T04:46:30.260Z,19.08
2018-05-31T04:47:30.242Z,19.43
2018-05-31T04:48:30.220Z,19.78
2018-05-31T04:49:30.164Z,19.77
2018-05-31T04:50:30.138Z,19.22
2018-05-31T04:51:30.109Z,18.62
2018-05-31T04:52:30.058Z,18.03
2018-05-31T04:53:30.099Z,18.10
2018-05-31T04:54:30.007Z,18.62
2018-05-31T04:55:29.972Z,19.36
2018-05-31T04:56:29.927Z,19.63
2018-05-31T04:57:29.908Z,19.61
2018-05-31T04:58:29.884Z,19.88
2018-05-31T04:59:29.859Z,19.87
2018-05-31T05:00:29.801Z,20.41
2018-05-31T05:01:29.874Z,21.07
2018-05-31T05:02:29.768Z,21.50
2018-05-31T05:03:29.747Z,21.53
2018-05-31T05:04:29.681Z,21.50
2018-05-31T05:05:29.684Z,21.67
2018-05-31T05:06:29.672Z,21.72
2018-05-31T05:07:29.631Z,21.58
2018-05-31T05:08:29.584Z,21.31
2018-05-31T05:09:29.575Z,21.14
2018-05-31T05:10:29.554Z,21.50
2018-05-31T05:11:29.545Z,22.10
2018-05-31T05:12:29.508Z,22.60
2018-05-31T05:13:29.442Z,22.07
2018-05-31T05:14:29.408Z,22.65
2018-05-31T05:15:29.401Z,22.30
2018-05-31T05:16:29.384Z,22.14
2018-05-31T05:17:29.340Z,22.68
2018-05-31T05:18:29.326Z,23.33
2018-05-31T05:19:29.285Z,23.61
2018-05-31T05:20:29.246Z,23.42
2018-05-31T05:21:29.231Z,23.50
2018-05-31T05:22:30.145Z,24.00
2018-05-31T05:23:29.169Z,23.95
2018-05-31T05:24:29.157Z,23.85
2018-05-31T05:25:29.107Z,23.84
2018-05-31T05:26:29.163Z,23.09
2018-05-31T05:27:29.080Z,22.82
2018-05-31T05:28:29.056Z,22.86
2018-05-31T05:29:29.043Z,22.90
2018-05-31T05:30:29.057Z,22.92
2018-05-31T05:31:29.001Z,22.91
2018-05-31T05:32:29.010Z,22.75
2018-05-31T05:33:28.920Z,22.79
2018-05-31T05:34:28.906Z,22.79
2018-05-31T05:35:28.872Z,22.68
2018-05-31T05:36:28.845Z,22.45
2018-05-31T05:37:28.825Z,21.99
2018-05-31T05:38:28.790Z,21.94
2018-05-31T05:39:28.768Z,22.17
2018-05-31T05:40:28.745Z,22.68
2018-05-31T05:41:28.774Z,22.75
2018-05-31T05:42:28.697Z,22.61
2018-05-31T05:43:28.704Z,22.64
2018-05-31T05:44:28.658Z,22.94
2018-05-31T05:45:28.639Z,22.52
2018-05-31T05:46:28.593Z,22.30
2018-05-31T05:47:28.614Z,22.27
2018-05-31T05:48:28.580Z,22.20
2018-05-31T05:49:28.545Z,22.42
2018-05-31T05:50:28.509Z,22.43
2018-05-31T05:51:28.510Z,22.18
2018-05-31T05:52:28.467Z,22.49
2018-05-31T05:53:28.449Z,22.37
2018-05-31T05:54:28.420Z,22.33
2018-05-31T05:55:28.372Z,22.31
2018-05-31T05:56:28.367Z,22.51
2018-05-31T05:57:28.331Z,22.49
2018-05-31T05:58:28.304Z,22.47
2018-05-31T05:59:28.276Z,22.65
2018-05-31T06:00:28.290Z,22.65
2018-05-31T06:01:28.250Z,22.95
2018-05-31T06:02:28.251Z,23.22
2018-05-31T06:03:28.194Z,23.68
2018-05-31T06:04:28.179Z,24.05
2018-05-31T06:05:28.176Z,24.57
2018-05-31T06:06:28.122Z,24.90
2018-05-31T06:07:28.084Z,24.83
2018-05-31T06:08:28.046Z,24.88
2018-05-31T06:09:28.045Z,24.42
2018-05-31T06:10:28.029Z,23.88
2018-05-31T06:11:27.977Z,23.58
2018-05-31T06:12:28.664Z,23.15
2018-05-31T06:13:27.963Z,22.77
2018-05-31T06:14:27.909Z,22.60
2018-05-31T06:15:27.889Z,22.61
2018-05-31T06:16:27.878Z,22.60
2018-05-31T06:17:27.879Z,22.49
2018-05-31T06:18:27.816Z,22.55
2018-05-31T06:19:27.791Z,22.54
2018-05-31T06:20:27.791Z,22.57
2018-05-31T06:21:27.815Z,22.58
2018-05-31T06:22:27.773Z,22.79
2018-05-31T06:23:27.748Z,22.95
2018-05-31T06:24:27.679Z,23.10
2018-05-31T06:25:27.652Z,23.27
2018-05-31T06:26:27.705Z,23.38
2018-05-31T06:27:27.588Z,23.33
2018-05-31T06:28:27.554Z,23.19
2018-05-31T06:29:27.531Z,23.31
2018-05-31T06:30:27.563Z,23.31
2018-05-31T06:31:27.498Z,22.97
2018-05-31T06:32:27.475Z,22.72
2018-05-31T06:33:27.482Z,22.76
2018-05-31T06:34:27.412Z,22.95
2018-05-31T06:35:27.370Z,22.68
2018-05-31T06:36:27.447Z,22.54
2018-05-31T06:37:27.430Z,22.55
2018-05-31T06:38:27.323Z,22.77
2018-05-31T06:39:27.297Z,23.15
2018-05-31T06:40:27.296Z,23.27
2018-05-31T06:41:27.227Z,23.38
2018-05-31T06:42:27.215Z,23.53
2018-05-31T06:43:27.216Z,23.60
2018-05-31T06:44:27.244Z,23.76
2018-05-31T06:45:27.174Z,24.10
2018-05-31T06:46:27.133Z,24.03
2018-05-31T06:47:27.097Z,24.00
2018-05-31T06:48:27.129Z,23.90
2018-05-31T06:49:27.047Z,23.42
2018-05-31T06:50:27.032Z,23.28
2018-05-31T06:51:27.014Z,23.28
2018-05-31T06:52:26.982Z,23.32
2018-05-31T06:53:26.945Z,23.47
2018-05-31T06:54:26.905Z,23.69
2018-05-31T06:55:26.878Z,23.65
2018-05-31T06:56:26.880Z,23.95
2018-05-31T06:57:26.875Z,24.16
2018-05-31T06:58:26.859Z,24.43
2018-05-31T06:59:26.784Z,24.69
2018-05-31T07:00:26.839Z,25.10
2018-05-31T07:01:26.795Z,25.65
2018-05-31T07:02:26.701Z,25.99
2018-05-31T07:03:26.759Z,26.44
2018-05-31T07:04:26.678Z,26.88
2018-05-31T07:05:26.653Z,27.44
2018-05-31T07:06:26.622Z,28.11
2018-05-31T07:07:26.605Z,28.81
2018-05-31T07:08:26.589Z,29.48
2018-05-31T07:09:26.561Z,30.11
2018-05-31T07:10:26.503Z,30.58
2018-05-31T07:11:26.519Z,31.12
2018-05-31T07:12:26.466Z,31.54
2018-05-31T07:13:26.474Z,31.86
2018-05-31T07:14:26.413Z,31.68
2018-05-31T07:15:26.436Z,31.84
2018-05-31T07:16:26.391Z,31.70
2018-05-31T07:17:26.360Z,31.39
2018-05-31T07:18:26.317Z,30.23
2018-05-31T07:19:26.340Z,30.05
2018-05-31T07:20:26.335Z,30.02
2018-05-31T07:21:26.292Z,28.51
2018-05-31T07:22:26.263Z,28.48
2018-05-31T07:23:26.226Z,28.70
2018-05-31T07:24:26.210Z,28.30
2018-05-31T07:25:26.171Z,27.99
2018-05-31T07:26:26.181Z,27.70
2018-05-31T07:27:26.154Z,27.93
2018-05-31T07:28:26.143Z,28.88
2018-05-31T07:29:26.123Z,29.78
2018-05-31T07:30:26.082Z,30.34
2018-05-31T07:31:26.111Z,30.57
2018-05-31T07:32:26.034Z,30.13
2018-05-31T07:33:26.057Z,30.07
2018-05-31T07:34:26.028Z,30.60
2018-05-31T07:35:25.984Z,30.91
2018-05-31T07:36:25.962Z,30.58
2018-05-31T07:37:25.955Z,29.98
2018-05-31T07:38:25.960Z,30.79
2018-05-31T07:39:25.899Z,31.78
2018-05-31T07:40:25.877Z,32.22
2018-05-31T07:41:25.865Z,31.81
2018-05-31T07:42:25.882Z,32.14
2018-05-31T07:43:25.836Z,32.50
2018-05-31T07:44:25.825Z,33.18
2018-05-31T07:45:25.799Z,33.04
2018-05-31T07:46:25.774Z,33.07
2018-05-31T07:47:25.763Z,33.45
2018-05-31T07:48:25.745Z,33.41
2018-05-31T07:49:25.727Z,33.97
2018-05-31T07:50:25.713Z,34.08
2018-05-31T07:51:25.683Z,33.09
2018-05-31T07:52:25.660Z,31.89
2018-05-31T07:53:25.650Z,31.92
2018-05-31T07:54:25.655Z,31.99
2018-05-31T07:55:25.637Z,32.63
2018-05-31T07:56:25.604Z,33.28
2018-05-31T07:57:25.573Z,32.18
2018-05-31T07:58:25.569Z,31.07
2018-05-31T07:59:25.562Z,31.41
2018-05-31T08:00:25.549Z,30.22
2018-05-31T08:01:25.530Z,31.43
2018-05-31T08:02:25.502Z,32.51
2018-05-31T08:03:25.499Z,32.37
2018-05-31T08:04:25.504Z,31.66
2018-05-31T08:05:25.452Z,32.47
2018-05-31T08:06:25.444Z,33.18
2018-05-31T08:07:25.448Z,33.79
2018-05-31T08:08:25.445Z,33.76
2018-05-31T08:09:25.399Z,32.79
2018-05-31T08:10:25.418Z,32.45
2018-05-31T08:11:25.499Z,31.96
2018-05-31T08:12:25.362Z,31.89
2018-05-31T08:13:25.370Z,32.78
2018-05-31T08:14:25.316Z,33.53
2018-05-31T08:15:25.311Z,33.75
2018-05-31T08:16:25.300Z,34.05
2018-05-31T08:17:25.293Z,34.39
2018-05-31T08:18:25.322Z,34.56
2018-05-31T08:19:25.259Z,34.21
2018-05-31T08:20:25.241Z,33.94
2018-05-31T08:21:25.215Z,33.71
2018-05-31T08:22:25.212Z,34.32
2018-05-31T08:23:25.178Z,32.56
2018-05-31T08:24:25.173Z,30.80
2018-05-31T08:25:25.156Z,30.26
2018-05-31T08:26:25.177Z,30.57
2018-05-31T08:27:25.141Z,31.89
2018-05-31T08:28:25.169Z,31.02
2018-05-31T08:29:25.109Z,30.10
2018-05-31T08:30:25.093Z,31.53
2018-05-31T08:31:25.152Z,32.47
2018-05-31T08:32:25.115Z,32.52
2018-05-31T08:33:25.058Z,31.32
2018-05-31T08:34:25.037Z,30.82
2018-05-31T08:35:25.028Z,30.98
2018-05-31T08:36:25.025Z,30.99
2018-05-31T08:37:25.011Z,31.85
2018-05-31T08:38:24.971Z,32.50
2018-05-31T08:39:24.990Z,32.79
2018-05-31T08:40:24.935Z,32.97
2018-05-31T08:41:24.930Z,32.96
2018-05-31T08:42:24.921Z,32.93
2018-05-31T08:43:24.953Z,33.73
2018-05-31T08:44:24.895Z,33.90
2018-05-31T08:45:24.929Z,34.19
2018-05-31T08:46:24.860Z,33.42
2018-05-31T08:47:24.844Z,31.70
2018-05-31T08:48:24.831Z,30.60
2018-05-31T08:49:24.821Z,29.95
2018-05-31T08:50:24.784Z,30.98
2018-05-31T08:51:24.839Z,30.26
2018-05-31T08:52:24.758Z,29.82
2018-05-31T08:53:24.769Z,29.78
2018-05-31T08:54:24.736Z,30.54
2018-05-31T08:55:24.732Z,31.76
2018-05-31T08:56:24.717Z,32.93
2018-05-31T08:57:24.845Z,33.72
2018-05-31T08:58:24.665Z,34.27
2018-05-31T08:59:24.654Z,34.94
2018-05-31T09:00:24.722Z,34.03
2018-05-31T09:01:24.629Z,34.53
2018-05-31T09:02:24.643Z,34.78
2018-05-31T09:03:24.609Z,33.53
2018-05-31T09:04:24.660Z,32.15
2018-05-31T09:05:24.566Z,30.69
2018-05-31T09:06:24.558Z,30.91
2018-05-31T09:07:24.587Z,31.39
2018-05-31T09:08:24.515Z,31.69
2018-05-31T09:09:24.506Z,32.01
2018-05-31T09:10:24.484Z,32.78
2018-05-31T09:11:24.448Z,32.47
2018-05-31T09:12:24.456Z,32.74
2018-05-31T09:13:24.426Z,30.84
2018-05-31T09:14:24.407Z,30.45
2018-05-31T09:15:24.395Z,30.83
2018-05-31T09:16:24.385Z,31.16
2018-05-31T09:17:24.371Z,30.88
2018-05-31T09:18:24.382Z,30.72
2018-05-31T09:19:24.339Z,31.20
2018-05-31T09:20:24.317Z,32.29
2018-05-31T09:21:24.292Z,32.77
2018-05-31T09:22:24.311Z,32.87
2018-05-31T09:23:24.271Z,32.48
2018-05-31T09:24:24.254Z,32.85
2018-05-31T09:25:24.241Z,32.60
2018-05-31T09:26:24.253Z,31.29
2018-05-31T09:27:24.200Z,30.55
2018-05-31T09:28:24.186Z,30.80
2018-05-31T09:29:24.188Z,31.51
2018-05-31T09:30:24.146Z,32.19
2018-05-31T09:31:24.136Z,31.47
2018-05-31T09:32:24.113Z,32.11
2018-05-31T09:33:24.113Z,32.99
2018-05-31T09:34:24.115Z,32.77
2018-05-31T09:35:24.086Z,33.19
2018-05-31T09:36:24.083Z,32.99
2018-05-31T09:37:24.045Z,33.00
2018-05-31T09:38:24.029Z,33.34
2018-05-31T09:39:24.019Z,33.44
2018-05-31T09:40:23.977Z,32.92
2018-05-31T09:41:23.990Z,31.72
2018-05-31T09:42:23.949Z,30.70
2018-05-31T09:43:23.927Z,31.23
2018-05-31T09:44:23.931Z,30.99
2018-05-31T09:45:23.907Z,31.04
2018-05-31T09:46:23.892Z,31.56
2018-05-31T09:47:23.868Z,32.67
2018-05-31T09:48:23.868Z,33.44
2018-05-31T09:49:23.862Z,34.13
2018-05-31T09:50:23.836Z,34.52
2018-05-31T09:51:23.801Z,34.03
2018-05-31T09:52:23.788Z,32.43
2018-05-31T09:53:23.782Z,31.46
2018-05-31T09:54:23.764Z,30.75
2018-05-31T09:55:23.731Z,31.41
2018-05-31T09:56:23.720Z,32.79
2018-05-31T09:57:23.708Z,33.28
2018-05-31T09:58:23.694Z,32.45
2018-05-31T09:59:23.684Z,31.48
2018-05-31T10:00:23.663Z,31.70
2018-05-31T10:01:23.651Z,30.61
2018-05-31T10:02:23.640Z,30.23
2018-05-31T10:03:23.622Z,30.13
2018-05-31T10:04:23.606Z,30.55
2018-05-31T10:05:23.597Z,31.91
2018-05-31T10:06:23.591Z,32.62
2018-05-31T10:07:23.572Z,32.07
2018-05-31T10:08:23.555Z,32.25
2018-05-31T10:09:23.526Z,33.45
2018-05-31T10:10:23.513Z,34.19
2018-05-31T10:11:23.509Z,34.16
2018-05-31T10:12:23.495Z,34.00
2018-05-31T10:13:23.480Z,33.31
2018-05-31T10:14:23.432Z,30.62
2018-05-31T10:15:23.438Z,30.70
2018-05-31T10:16:23.448Z,31.53
2018-05-31T10:17:23.400Z,32.28
2018-05-31T10:18:23.402Z,32.23
2018-05-31T10:19:23.386Z,32.03
2018-05-31T10:20:23.357Z,32.07
2018-05-31T10:21:23.338Z,32.66
2018-05-31T10:22:23.314Z,33.28
2018-05-31T10:23:23.309Z,33.45
2018-05-31T10:24:23.301Z,33.49
2018-05-31T10:25:23.262Z,32.69
2018-05-31T10:26:23.264Z,32.70
2018-05-31T10:27:23.234Z,33.19
2018-05-31T10:28:23.214Z,33.16
2018-05-31T10:29:23.204Z,32.74
2018-05-31T10:30:23.179Z,32.93
2018-05-31T10:31:23.201Z,33.60
2018-05-31T10:32:23.148Z,32.79
2018-05-31T10:33:23.138Z,32.33
2018-05-31T10:34:23.127Z,30.97
2018-05-31T10:35:23.124Z,30.38
2018-05-31T10:36:23.112Z,29.97
2018-05-31T10:37:23.074Z,29.48
2018-05-31T10:38:23.067Z,30.00
2018-05-31T10:39:23.074Z,30.42
2018-05-31T10:40:23.030Z,31.25
2018-05-31T10:41:23.022Z,32.11
2018-05-31T10:42:22.993Z,33.11
2018-05-31T10:43:22.976Z,33.56
2018-05-31T10:44:22.961Z,33.84
2018-05-31T10:45:22.951Z,34.06
2018-05-31T10:46:22.949Z,34.81
2018-05-31T10:47:22.932Z,35.29
2018-05-31T10:48:22.920Z,34.34
2018-05-31T10:49:22.888Z,32.41
2018-05-31T10:50:22.847Z,31.38
2018-05-31T10:51:22.837Z,31.32
2018-05-31T10:52:22.837Z,30.86
2018-05-31T10:53:22.810Z,30.84
2018-05-31T10:54:22.787Z,31.38
2018-05-31T10:55:22.768Z,32.26
2018-05-31T10:56:22.778Z,32.72
2018-05-31T10:57:22.736Z,33.00
2018-05-31T10:58:22.750Z,33.44
2018-05-31T10:59:22.736Z,33.90
2018-05-31T11:00:22.704Z,34.10
2018-05-31T11:01:22.697Z,34.53
2018-05-31T11:02:22.666Z,34.52
2018-05-31T11:03:22.668Z,34.94
2018-05-31T11:04:22.620Z,35.00
2018-05-31T11:05:22.619Z,35.21
2018-05-31T11:06:22.605Z,35.55
2018-05-31T11:07:22.564Z,33.88
2018-05-31T11:08:22.578Z,32.99
2018-05-31T11:09:22.560Z,33.49
2018-05-31T11:10:22.539Z,32.97
2018-05-31T11:11:22.518Z,32.81
2018-05-31T11:12:22.502Z,32.77
2018-05-31T11:13:22.491Z,33.14
2018-05-31T11:14:22.463Z,33.01
2018-05-31T11:15:22.457Z,32.81
2018-05-31T11:16:22.458Z,32.26
2018-05-31T11:17:22.450Z,32.07
2018-05-31T11:18:22.426Z,32.19
2018-05-31T11:19:22.383Z,32.45
2018-05-31T11:20:22.359Z,32.85
2018-05-31T11:21:22.348Z,32.72
2018-05-31T11:22:22.372Z,32.79
2018-05-31T11:23:22.311Z,33.34
2018-05-31T11:24:22.319Z,33.37
2018-05-31T11:25:22.286Z,32.69
2018-05-31T11:26:22.277Z,33.31
2018-05-31T11:27:22.279Z,33.56
2018-05-31T11:28:22.238Z,33.29
2018-05-31T11:29:22.223Z,32.66
2018-05-31T11:30:22.204Z,32.67
2018-05-31T11:31:22.209Z,32.59
2018-05-31T11:32:22.169Z,32.22
2018-05-31T11:33:22.168Z,31.75
2018-05-31T11:34:22.155Z,32.06
2018-05-31T11:35:22.139Z,32.74
2018-05-31T11:36:22.127Z,33.11
2018-05-31T11:37:22.099Z,33.47
2018-05-31T11:38:22.144Z,33.75
2018-05-31T11:39:22.098Z,34.06
2018-05-31T11:40:22.052Z,34.66
2018-05-31T11:41:22.022Z,33.88
2018-05-31T11:42:22.065Z,33.42
2018-05-31T11:43:21.989Z,32.72
2018-05-31T11:44:21.979Z,30.75
2018-05-31T11:45:21.973Z,30.88
2018-05-31T11:46:22.038Z,30.27
2018-05-31T11:47:21.934Z,29.86
2018-05-31T11:48:21.921Z,29.92
2018-05-31T11:49:21.921Z,29.85
2018-05-31T11:50:21.916Z,29.85
2018-05-31T11:51:21.879Z,30.38
2018-05-31T11:52:21.886Z,29.97
2018-05-31T11:53:21.867Z,30.07
2018-05-31T11:54:21.825Z,30.29
2018-05-31T11:55:21.789Z,31.23
2018-05-31T11:56:21.846Z,31.04
2018-05-31T11:57:21.772Z,32.04
2018-05-31T11:58:21.750Z,32.26
2018-05-31T11:59:21.735Z,30.98
2018-05-31T12:00:21.750Z,31.31
2018-05-31T12:01:21.717Z,31.43
2018-05-31T12:02:21.739Z,30.99
2018-05-31T12:03:21.677Z,30.94
2018-05-31T12:04:21.638Z,30.84
2018-05-31T12:05:21.630Z,30.69
2018-05-31T12:06:21.643Z,30.53
2018-05-31T12:07:21.613Z,30.61
2018-05-31T12:08:21.604Z,30.37
2018-05-31T12:09:21.559Z,30.34
2018-05-31T12:10:21.551Z,30.22
2018-05-31T12:11:21.522Z,30.32
2018-05-31T12:12:21.518Z,30.79
2018-05-31T12:13:21.494Z,31.69
2018-05-31T12:14:21.489Z,32.45
2018-05-31T12:15:21.443Z,33.15
2018-05-31T12:16:21.448Z,33.44
2018-05-31T12:17:21.439Z,32.56
2018-05-31T12:18:21.417Z,31.86
2018-05-31T12:19:21.388Z,31.51
2018-05-31T12:20:21.349Z,31.84
2018-05-31T12:21:21.354Z,32.01
2018-05-31T12:22:21.334Z,31.48
2018-05-31T12:23:21.325Z,31.56
2018-05-31T12:24:21.395Z,31.35
2018-05-31T12:25:21.277Z,30.39
2018-05-31T12:26:21.272Z,30.38
2018-05-31T12:27:21.239Z,30.43
2018-05-31T12:28:21.229Z,30.22
2018-05-31T12:29:21.215Z,29.46
2018-05-31T12:30:21.174Z,29.46
2018-05-31T12:31:21.206Z,29.63
2018-05-31T12:32:21.145Z,29.60
2018-05-31T12:33:21.162Z,29.57
2018-05-31T12:34:21.126Z,29.61
2018-05-31T12:35:21.160Z,29.61
2018-05-31T12:36:21.071Z,29.86
2018-05-31T12:37:21.067Z,30.11
2018-05-31T12:38:21.051Z,30.05
2018-05-31T12:39:21.039Z,29.97
2018-05-31T12:40:20.992Z,29.73
2018-05-31T12:41:20.966Z,29.41
2018-05-31T12:42:20.968Z,29.12
2018-05-31T12:43:20.941Z,28.85
2018-05-31T12:44:20.911Z,28.71
2018-05-31T12:45:20.918Z,28.52
2018-05-31T12:46:20.879Z,28.12
2018-05-31T12:47:20.873Z,27.82
2018-05-31T12:48:20.853Z,27.67
2018-05-31T12:49:20.827Z,27.62
2018-05-31T12:50:20.801Z,27.57
2018-05-31T12:51:20.808Z,27.47
2018-05-31T12:52:20.840Z,27.39